sensor_id;sensor_type;location;lat;lon;timestamp;P1;durP1;ratioP1;P2;durP2;ratioP2
60306;SDS011;46155;52.364;6.580;2023-07-13T03:01:31;12.80;;;11.80;;
60306;SDS011;46155;52.364;6.580;2023-07-13T03:03:57;15.70;;;12.33;;
60306;SDS011;46155;52.364;6.580;2023-07-13T03:06:23;12.83;;;11.50;;
60306;SDS011;46155;52.364;6.580;2023-07-13T03:08:49;13.30;;;12.27;;
60306;SDS011;46155;52.364;6.580;2023-07-13T03:11:18;13.33;;;12.33;;
60306;SDS011;46155;52.364;6.580;2023-07-13T03:13:44;14.70;;;13.30;;
60306;SDS011;46155;52.364;6.580;2023-07-13T03:16:11;14.53;;;13.17;;
60306;SDS011;46155;52.364;6.580;2023-07-13T03:18:37;14.53;;;13.27;;
60306;SDS011;46155;52.364;6.580;2023-07-13T03:21:03;13.87;;;12.77;;
60306;SDS011;46155;52.364;6.580;2023-07-13T03:23:29;14.07;;;12.73;;
60306;SDS011;46155;52.364;6.580;2023-07-13T03:26:06;14.97;;;13.40;;
60306;SDS011;46155;52.364;6.580;2023-07-13T03:28:37;14.63;;;11.97;;
60306;SDS011;46155;52.364;6.580;2023-07-13T03:31:05;14.07;;;13.03;;
60306;SDS011;46155;52.364;6.580;2023-07-13T03:33:36;15.67;;;12.20;;
60306;SDS011;46155;52.364;6.580;2023-07-13T03:36:02;12.33;;;11.20;;
60306;SDS011;46155;52.364;6.580;2023-07-13T03:38:29;13.20;;;11.73;;
60306;SDS011;46155;52.364;6.580;2023-07-13T03:40:55;10.87;;;9.70;;
60306;SDS011;46155;52.364;6.580;2023-07-13T03:43:20;11.17;;;10.07;;
60306;SDS011;46155;52.364;6.580;2023-07-13T03:45:46;14.40;;;9.73;;
60306;SDS011;46155;52.364;6.580;2023-07-13T03:48:12;9.60;;;8.90;;
60306;SDS011;46155;52.364;6.580;2023-07-13T03:50:38;12.27;;;8.90;;
60306;SDS011;46155;52.364;6.580;2023-07-13T03:53:04;14.50;;;9.53;;
60306;SDS011;46155;52.364;6.580;2023-07-13T03:55:29;10.10;;;9.20;;
60306;SDS011;46155;52.364;6.580;2023-07-13T03:58:00;10.00;;;9.10;;
60306;SDS011;46155;52.364;6.580;2023-07-13T04:00:46;11.37;;;10.17;;
60306;SDS011;46155;52.364;6.580;2023-07-13T04:03:11;10.83;;;9.73;;
60306;SDS011;46155;52.364;6.580;2023-07-13T04:05:37;15.90;;;10.50;;
60306;SDS011;46155;52.364;6.580;2023-07-13T04:08:05;9.47;;;8.63;;
60306;SDS011;46155;52.364;6.580;2023-07-13T04:10:31;10.50;;;9.50;;
60306;SDS011;46155;52.364;6.580;2023-07-13T04:12:56;13.73;;;9.63;;
60306;SDS011;46155;52.364;6.580;2023-07-13T04:15:21;10.50;;;9.63;;
60306;SDS011;46155;52.364;6.580;2023-07-13T04:17:47;13.70;;;9.87;;
60306;SDS011;46155;52.364;6.580;2023-07-13T04:20:12;10.37;;;9.33;;
60306;SDS011;46155;52.364;6.580;2023-07-13T04:22:37;10.97;;;9.20;;
60306;SDS011;46155;52.364;6.580;2023-07-13T04:25:03;20.30;;;9.37;;
60306;SDS011;46155;52.364;6.580;2023-07-13T04:27:30;11.47;;;9.50;;
60306;SDS011;46155;52.364;6.580;2023-07-13T04:29:55;14.50;;;10.87;;
60306;SDS011;46155;52.364;6.580;2023-07-13T04:32:21;16.73;;;9.37;;
60306;SDS011;46155;52.364;6.580;2023-07-13T04:34:46;12.10;;;9.30;;
60306;SDS011;46155;52.364;6.580;2023-07-13T04:37:12;10.40;;;9.50;;
60306;SDS011;46155;52.364;6.580;2023-07-13T04:39:37;10.57;;;9.63;;
60306;SDS011;46155;52.364;6.580;2023-07-13T04:42:03;16.03;;;10.17;;
60306;SDS011;46155;52.364;6.580;2023-07-13T04:44:29;10.30;;;9.30;;
60306;SDS011;46155;52.364;6.580;2023-07-13T04:46:54;11.20;;;10.07;;
60306;SDS011;46155;52.364;6.580;2023-07-13T04:49:19;47.30;;;14.73;;
60306;SDS011;46155;52.364;6.580;2023-07-13T04:51:45;15.17;;;9.53;;
60306;SDS011;46155;52.364;6.580;2023-07-13T04:54:10;13.47;;;9.40;;
60306;SDS011;46155;52.364;6.580;2023-07-13T04:56:36;15.57;;;10.83;;
60306;SDS011;46155;52.364;6.580;2023-07-13T04:59:01;12.10;;;9.53;;
60306;SDS011;46155;52.364;6.580;2023-07-13T05:01:27;11.30;;;10.20;;
60306;SDS011;46155;52.364;6.580;2023-07-13T05:03:52;12.03;;;10.73;;
60306;SDS011;46155;52.364;6.580;2023-07-13T05:06:17;12.00;;;10.53;;
60306;SDS011;46155;52.364;6.580;2023-07-13T05:08:43;16.20;;;11.83;;
60306;SDS011;46155;52.364;6.580;2023-07-13T05:11:08;14.87;;;11.20;;
60306;SDS011;46155;52.364;6.580;2023-07-13T05:13:34;14.03;;;11.37;;
60306;SDS011;46155;52.364;6.580;2023-07-13T05:16:01;15.47;;;11.17;;
60306;SDS011;46155;52.364;6.580;2023-07-13T05:18:29;13.43;;;10.00;;
60306;SDS011;46155;52.364;6.580;2023-07-13T05:20:58;16.03;;;10.73;;
60306;SDS011;46155;52.364;6.580;2023-07-13T05:23:26;23.20;;;11.03;;
60306;SDS011;46155;52.364;6.580;2023-07-13T05:25:52;11.70;;;10.37;;
60306;SDS011;46155;52.364;6.580;2023-07-13T05:28:17;13.63;;;10.50;;
60306;SDS011;46155;52.364;6.580;2023-07-13T05:30:48;17.50;;;11.70;;
60306;SDS011;46155;52.364;6.580;2023-07-13T05:33:15;17.30;;;11.50;;
60306;SDS011;46155;52.364;6.580;2023-07-13T05:35:40;12.67;;;11.53;;
60306;SDS011;46155;52.364;6.580;2023-07-13T05:38:06;14.33;;;11.40;;
60306;SDS011;46155;52.364;6.580;2023-07-13T05:40:31;16.17;;;11.37;;
60306;SDS011;46155;52.364;6.580;2023-07-13T05:42:57;16.60;;;10.73;;
60306;SDS011;46155;52.364;6.580;2023-07-13T05:45:22;15.43;;;11.70;;
60306;SDS011;46155;52.364;6.580;2023-07-13T05:47:48;16.43;;;11.07;;
60306;SDS011;46155;52.364;6.580;2023-07-13T05:50:13;14.23;;;12.60;;
60306;SDS011;46155;52.364;6.580;2023-07-13T05:52:39;15.03;;;11.40;;
60306;SDS011;46155;52.364;6.580;2023-07-13T05:55:04;15.43;;;11.73;;
60306;SDS011;46155;52.364;6.580;2023-07-13T05:57:30;18.80;;;10.73;;
60306;SDS011;46155;52.364;6.580;2023-07-13T05:59:56;17.00;;;11.80;;
60306;SDS011;46155;52.364;6.580;2023-07-13T06:02:21;16.20;;;11.17;;
60306;SDS011;46155;52.364;6.580;2023-07-13T06:04:46;14.93;;;11.37;;
60306;SDS011;46155;52.364;6.580;2023-07-13T06:07:12;22.93;;;10.93;;
60306;SDS011;46155;52.364;6.580;2023-07-13T06:09:37;18.67;;;10.40;;
60306;SDS011;46155;52.364;6.580;2023-07-13T06:12:03;21.57;;;10.23;;
60306;SDS011;46155;52.364;6.580;2023-07-13T06:14:29;19.27;;;10.57;;
60306;SDS011;46155;52.364;6.580;2023-07-13T06:16:55;16.50;;;9.87;;
60306;SDS011;46155;52.364;6.580;2023-07-13T06:19:20;16.57;;;9.70;;
60306;SDS011;46155;52.364;6.580;2023-07-13T06:21:46;17.23;;;12.07;;
60306;SDS011;46155;52.364;6.580;2023-07-13T06:24:11;22.93;;;10.00;;
60306;SDS011;46155;52.364;6.580;2023-07-13T06:26:37;19.40;;;11.13;;
60306;SDS011;46155;52.364;6.580;2023-07-13T06:29:02;15.57;;;9.93;;
60306;SDS011;46155;52.364;6.580;2023-07-13T06:31:27;14.23;;;9.60;;
60306;SDS011;46155;52.364;6.580;2023-07-13T06:33:53;19.77;;;10.10;;
60306;SDS011;46155;52.364;6.580;2023-07-13T06:36:19;15.37;;;9.73;;
60306;SDS011;46155;52.364;6.580;2023-07-13T06:38:44;17.83;;;10.50;;
60306;SDS011;46155;52.364;6.580;2023-07-13T06:41:09;19.57;;;11.17;;
60306;SDS011;46155;52.364;6.580;2023-07-13T06:43:35;15.57;;;10.73;;
60306;SDS011;46155;52.364;6.580;2023-07-13T06:46:01;22.97;;;11.13;;
60306;SDS011;46155;52.364;6.580;2023-07-13T06:48:26;15.50;;;11.00;;
60306;SDS011;46155;52.364;6.580;2023-07-13T06:50:52;16.03;;;10.87;;
60306;SDS011;46155;52.364;6.580;2023-07-13T06:53:18;17.77;;;11.03;;
60306;SDS011;46155;52.364;6.580;2023-07-13T06:55:45;16.00;;;11.40;;
60306;SDS011;46155;52.364;6.580;2023-07-13T06:58:11;21.03;;;11.07;;
60306;SDS011;46155;52.364;6.580;2023-07-13T07:00:37;20.33;;;11.13;;
60306;SDS011;46155;52.364;6.580;2023-07-13T07:03:05;14.10;;;10.73;;
60306;SDS011;46155;52.364;6.580;2023-07-13T07:05:30;17.90;;;11.47;;
60306;SDS011;46155;52.364;6.580;2023-07-13T07:07:55;18.77;;;12.33;;
60306;SDS011;46155;52.364;6.580;2023-07-13T07:10:21;25.40;;;11.93;;
60306;SDS011;46155;52.364;6.580;2023-07-13T07:12:47;19.63;;;11.27;;
60306;SDS011;46155;52.364;6.580;2023-07-13T07:15:14;18.77;;;12.67;;
60306;SDS011;46155;52.364;6.580;2023-07-13T07:17:40;15.93;;;11.07;;
60306;SDS011;46155;52.364;6.580;2023-07-13T07:20:05;17.27;;;12.17;;
60306;SDS011;46155;52.364;6.580;2023-07-13T07:22:31;21.20;;;12.67;;
60306;SDS011;46155;52.364;6.580;2023-07-13T07:24:57;21.73;;;12.20;;
60306;SDS011;46155;52.364;6.580;2023-07-13T07:27:23;15.37;;;11.90;;
60306;SDS011;46155;52.364;6.580;2023-07-13T07:29:49;19.33;;;11.87;;
60306;SDS011;46155;52.364;6.580;2023-07-13T07:32:14;13.73;;;12.33;;
60306;SDS011;46155;52.364;6.580;2023-07-13T07:34:40;17.30;;;11.27;;
60306;SDS011;46155;52.364;6.580;2023-07-13T07:37:05;16.77;;;11.97;;
60306;SDS011;46155;52.364;6.580;2023-07-13T07:39:31;20.13;;;12.97;;
60306;SDS011;46155;52.364;6.580;2023-07-13T07:41:57;19.17;;;13.43;;
60306;SDS011;46155;52.364;6.580;2023-07-13T07:44:22;16.60;;;11.90;;
60306;SDS011;46155;52.364;6.580;2023-07-13T07:46:48;23.70;;;12.80;;
60306;SDS011;46155;52.364;6.580;2023-07-13T07:49:14;14.23;;;12.37;;
60306;SDS011;46155;52.364;6.580;2023-07-13T07:51:39;25.63;;;13.43;;
60306;SDS011;46155;52.364;6.580;2023-07-13T07:54:05;25.27;;;13.17;;
60306;SDS011;46155;52.364;6.580;2023-07-13T07:56:31;17.53;;;12.70;;
60306;SDS011;46155;52.364;6.580;2023-07-13T07:58:57;21.13;;;12.37;;
60306;SDS011;46155;52.364;6.580;2023-07-13T08:01:22;18.37;;;12.70;;
60306;SDS011;46155;52.364;6.580;2023-07-13T08:03:48;17.73;;;12.70;;
60306;SDS011;46155;52.364;6.580;2023-07-13T08:06:14;14.80;;;11.73;;
60306;SDS011;46155;52.364;6.580;2023-07-13T08:08:39;23.00;;;12.70;;
60306;SDS011;46155;52.364;6.580;2023-07-13T08:11:05;19.20;;;12.73;;
60306;SDS011;46155;52.364;6.580;2023-07-13T08:13:33;19.13;;;11.30;;
60306;SDS011;46155;52.364;6.580;2023-07-13T08:15:59;17.20;;;11.13;;
60306;SDS011;46155;52.364;6.580;2023-07-13T08:18:25;17.73;;;12.23;;
60306;SDS011;46155;52.364;6.580;2023-07-13T08:20:53;21.37;;;12.43;;
60306;SDS011;46155;52.364;6.580;2023-07-13T08:23:21;20.13;;;12.10;;
60306;SDS011;46155;52.364;6.580;2023-07-13T08:25:52;14.37;;;11.90;;
60306;SDS011;46155;52.364;6.580;2023-07-13T08:28:19;16.77;;;10.77;;
60306;SDS011;46155;52.364;6.580;2023-07-13T08:30:45;16.50;;;11.10;;
60306;SDS011;46155;52.364;6.580;2023-07-13T08:33:14;13.23;;;10.67;;
60306;SDS011;46155;52.364;6.580;2023-07-13T08:35:49;15.20;;;11.90;;
60306;SDS011;46155;52.364;6.580;2023-07-13T08:38:16;14.20;;;11.63;;
60306;SDS011;46155;52.364;6.580;2023-07-13T08:40:42;20.10;;;12.40;;
60306;SDS011;46155;52.364;6.580;2023-07-13T08:43:09;14.23;;;12.17;;
60306;SDS011;46155;52.364;6.580;2023-07-13T08:45:47;20.33;;;12.30;;
60306;SDS011;46155;52.364;6.580;2023-07-13T08:48:42;13.07;;;10.70;;
60306;SDS011;46155;52.364;6.580;2023-07-13T08:54:04;15.77;;;12.47;;
60306;SDS011;46155;52.364;6.580;2023-07-13T08:56:36;15.83;;;12.20;;
60306;SDS011;46155;52.364;6.580;2023-07-13T08:59:06;24.23;;;12.43;;
60306;SDS011;46155;52.364;6.580;2023-07-13T09:04:32;17.90;;;12.10;;
60306;SDS011;46155;52.364;6.580;2023-07-13T09:15:31;18.93;;;11.50;;
60306;SDS011;46155;52.364;6.580;2023-07-13T09:17:57;16.33;;;10.80;;
60306;SDS011;46155;52.364;6.580;2023-07-13T09:23:04;20.07;;;14.20;;
60306;SDS011;46155;52.364;6.580;2023-07-13T09:25:33;18.27;;;12.23;;
60306;SDS011;46155;52.364;6.580;2023-07-13T09:28:11;19.47;;;12.43;;
60306;SDS011;46155;52.364;6.580;2023-07-13T09:30:45;16.73;;;13.17;;
60306;SDS011;46155;52.364;6.580;2023-07-13T09:33:18;22.50;;;13.97;;
60306;SDS011;46155;52.364;6.580;2023-07-13T09:35:44;18.30;;;13.30;;
60306;SDS011;46155;52.364;6.580;2023-07-13T09:38:16;21.67;;;12.83;;
60306;SDS011;46155;52.364;6.580;2023-07-13T09:43:24;18.03;;;11.67;;
60306;SDS011;46155;52.364;6.580;2023-07-13T09:45:50;19.50;;;12.93;;
60306;SDS011;46155;52.364;6.580;2023-07-13T09:48:16;19.67;;;13.20;;
60306;SDS011;46155;52.364;6.580;2023-07-13T09:50:42;24.73;;;12.80;;
60306;SDS011;46155;52.364;6.580;2023-07-13T09:53:16;19.67;;;12.50;;
60306;SDS011;46155;52.364;6.580;2023-07-13T09:55:44;19.37;;;12.03;;
60306;SDS011;46155;52.364;6.580;2023-07-13T10:00:36;19.03;;;11.23;;
60306;SDS011;46155;52.364;6.580;2023-07-13T10:03:03;15.67;;;10.37;;
60306;SDS011;46155;52.364;6.580;2023-07-13T10:05:36;12.07;;;10.23;;
60306;SDS011;46155;52.364;6.580;2023-07-13T10:08:03;20.03;;;10.57;;
60306;SDS011;46155;52.364;6.580;2023-07-13T10:10:32;14.37;;;10.43;;
60306;SDS011;46155;52.364;6.580;2023-07-13T10:13:00;16.33;;;9.87;;
60306;SDS011;46155;52.364;6.580;2023-07-13T10:15:26;19.97;;;10.77;;
60306;SDS011;46155;52.364;6.580;2023-07-13T10:17:53;16.97;;;11.47;;
60306;SDS011;46155;52.364;6.580;2023-07-13T10:20:21;19.17;;;10.57;;
60306;SDS011;46155;52.364;6.580;2023-07-13T10:22:58;18.37;;;10.67;;
60306;SDS011;46155;52.364;6.580;2023-07-13T10:25:27;18.73;;;10.83;;
60306;SDS011;46155;52.364;6.580;2023-07-13T10:28:02;21.47;;;10.73;;
60306;SDS011;46155;52.364;6.580;2023-07-13T10:30:38;12.13;;;10.93;;
60306;SDS011;46155;52.364;6.580;2023-07-13T10:33:09;19.73;;;11.60;;
60306;SDS011;46155;52.364;6.580;2023-07-13T10:35:37;18.53;;;13.00;;
60306;SDS011;46155;52.364;6.580;2023-07-13T10:38:07;16.70;;;13.63;;
60306;SDS011;46155;52.364;6.580;2023-07-13T10:40:37;19.03;;;14.43;;
60306;SDS011;46155;52.364;6.580;2023-07-13T10:45:52;25.47;;;17.77;;
60306;SDS011;46155;52.364;6.580;2023-07-13T10:48:19;27.93;;;18.20;;
60306;SDS011;46155;52.364;6.580;2023-07-13T10:50:48;30.40;;;21.57;;
60306;SDS011;46155;52.364;6.580;2023-07-13T10:53:19;25.07;;;20.53;;
60306;SDS011;46155;52.364;6.580;2023-07-13T10:58:24;23.33;;;20.77;;
60306;SDS011;46155;52.364;6.580;2023-07-13T11:03:28;23.57;;;18.27;;
60306;SDS011;46155;52.364;6.580;2023-07-13T11:06:09;28.50;;;17.57;;
60306;SDS011;46155;52.364;6.580;2023-07-13T11:13:56;21.50;;;17.50;;
60306;SDS011;46155;52.364;6.580;2023-07-13T11:22:01;18.53;;;15.57;;
60306;SDS011;46155;52.364;6.580;2023-07-13T11:30:58;10.67;;;9.03;;
60306;SDS011;46155;52.364;6.580;2023-07-13T11:33:49;11.20;;;9.57;;
60306;SDS011;46155;52.364;6.580;2023-07-13T11:36:18;13.00;;;9.60;;
60306;SDS011;46155;52.364;6.580;2023-07-13T11:41:44;9.03;;;8.23;;
60306;SDS011;46155;52.364;6.580;2023-07-13T11:44:16;9.90;;;9.00;;
60306;SDS011;46155;52.364;6.580;2023-07-13T11:46:51;8.97;;;8.27;;
60306;SDS011;46155;52.364;6.580;2023-07-13T11:49:22;9.40;;;8.50;;
60306;SDS011;46155;52.364;6.580;2023-07-13T11:51:49;10.10;;;9.07;;
60306;SDS011;46155;52.364;6.580;2023-07-13T11:56:47;8.17;;;7.37;;
60306;SDS011;46155;52.364;6.580;2023-07-13T11:59:14;6.57;;;6.17;;
60306;SDS011;46155;52.364;6.580;2023-07-13T12:01:43;6.97;;;6.57;;
60306;SDS011;46155;52.364;6.580;2023-07-13T12:04:31;7.10;;;6.60;;
60306;SDS011;46155;52.364;6.580;2023-07-13T12:07:14;7.23;;;6.73;;
60306;SDS011;46155;52.364;6.580;2023-07-13T12:09:42;7.37;;;6.87;;
60306;SDS011;46155;52.364;6.580;2023-07-13T12:12:15;10.47;;;6.30;;
60306;SDS011;46155;52.364;6.580;2023-07-13T12:14:43;7.97;;;7.27;;
60306;SDS011;46155;52.364;6.580;2023-07-13T12:17:11;6.90;;;6.30;;
60306;SDS011;46155;52.364;6.580;2023-07-13T12:19:41;8.80;;;6.27;;
60306;SDS011;46155;52.364;6.580;2023-07-13T12:22:10;6.77;;;6.17;;
60306;SDS011;46155;52.364;6.580;2023-07-13T12:24:38;6.27;;;5.87;;
60306;SDS011;46155;52.364;6.580;2023-07-13T12:27:13;6.97;;;6.40;;
60306;SDS011;46155;52.364;6.580;2023-07-13T12:29:48;8.27;;;6.50;;
60306;SDS011;46155;52.364;6.580;2023-07-13T12:32:17;7.30;;;6.60;;
60306;SDS011;46155;52.364;6.580;2023-07-13T12:34:56;7.70;;;6.77;;
60306;SDS011;46155;52.364;6.580;2023-07-13T12:37:41;7.57;;;6.97;;
60306;SDS011;46155;52.364;6.580;2023-07-13T12:40:12;7.63;;;7.00;;
60306;SDS011;46155;52.364;6.580;2023-07-13T12:42:40;9.77;;;7.83;;
60306;SDS011;46155;52.364;6.580;2023-07-13T12:45:16;17.63;;;11.13;;
60306;SDS011;46155;52.364;6.580;2023-07-13T12:47:47;11.93;;;10.73;;
60306;SDS011;46155;52.364;6.580;2023-07-13T12:50:15;11.43;;;10.53;;
60306;SDS011;46155;52.364;6.580;2023-07-13T12:53:01;12.17;;;11.37;;
60306;SDS011;46155;52.364;6.580;2023-07-13T12:55:28;13.90;;;12.70;;
60306;SDS011;46155;52.364;6.580;2023-07-13T12:57:58;16.80;;;11.83;;
60306;SDS011;46155;52.364;6.580;2023-07-13T13:00:29;14.17;;;12.80;;
60306;SDS011;46155;52.364;6.580;2023-07-13T13:02:58;13.70;;;12.63;;
60306;SDS011;46155;52.364;6.580;2023-07-13T13:05:28;14.97;;;13.23;;
60306;SDS011;46155;52.364;6.580;2023-07-13T13:07:55;15.63;;;14.33;;
60306;SDS011;46155;52.364;6.580;2023-07-13T13:10:21;16.83;;;15.63;;
60306;SDS011;46155;52.364;6.580;2023-07-13T13:12:46;16.03;;;14.53;;
60306;SDS011;46155;52.364;6.580;2023-07-13T13:15:12;16.33;;;15.03;;
60306;SDS011;46155;52.364;6.580;2023-07-13T13:17:38;17.13;;;15.57;;
60306;SDS011;46155;52.364;6.580;2023-07-13T13:20:11;17.20;;;15.80;;
60306;SDS011;46155;52.364;6.580;2023-07-13T13:22:41;15.63;;;14.50;;
60306;SDS011;46155;52.364;6.580;2023-07-13T13:25:08;16.67;;;15.27;;
60306;SDS011;46155;52.364;6.580;2023-07-13T13:27:35;16.73;;;15.20;;
60306;SDS011;46155;52.364;6.580;2023-07-13T13:30:02;16.87;;;15.63;;
60306;SDS011;46155;52.364;6.580;2023-07-13T13:32:27;16.10;;;14.80;;
60306;SDS011;46155;52.364;6.580;2023-07-13T13:34:53;16.00;;;14.70;;
60306;SDS011;46155;52.364;6.580;2023-07-13T13:37:27;16.90;;;15.67;;
60306;SDS011;46155;52.364;6.580;2023-07-13T13:39:53;14.63;;;13.63;;
60306;SDS011;46155;52.364;6.580;2023-07-13T13:42:20;13.63;;;12.53;;
60306;SDS011;46155;52.364;6.580;2023-07-13T13:44:49;15.93;;;14.70;;
60306;SDS011;46155;52.364;6.580;2023-07-13T13:47:48;14.97;;;13.93;;
60306;SDS011;46155;52.364;6.580;2023-07-13T13:50:14;14.70;;;13.73;;
60306;SDS011;46155;52.364;6.580;2023-07-13T13:52:41;14.03;;;12.73;;
60306;SDS011;46155;52.364;6.580;2023-07-13T13:55:17;13.00;;;11.87;;
60306;SDS011;46155;52.364;6.580;2023-07-13T13:57:45;9.03;;;8.23;;
60306;SDS011;46155;52.364;6.580;2023-07-13T14:00:11;10.47;;;9.53;;
60306;SDS011;46155;52.364;6.580;2023-07-13T14:02:39;11.67;;;10.87;;
60306;SDS011;46155;52.364;6.580;2023-07-13T14:05:06;14.33;;;13.10;;
60306;SDS011;46155;52.364;6.580;2023-07-13T14:07:35;13.87;;;12.87;;
60306;SDS011;46155;52.364;6.580;2023-07-13T14:10:01;14.63;;;13.17;;
60306;SDS011;46155;52.364;6.580;2023-07-13T14:12:27;12.30;;;11.20;;
60306;SDS011;46155;52.364;6.580;2023-07-13T14:14:54;16.33;;;14.63;;
60306;SDS011;46155;52.364;6.580;2023-07-13T14:17:21;14.47;;;12.93;;
60306;SDS011;46155;52.364;6.580;2023-07-13T14:19:50;13.97;;;12.90;;
60306;SDS011;46155;52.364;6.580;2023-07-13T14:22:19;14.53;;;13.20;;
60306;SDS011;46155;52.364;6.580;2023-07-13T14:24:45;16.07;;;14.60;;
60306;SDS011;46155;52.364;6.580;2023-07-13T14:27:11;13.83;;;12.73;;
60306;SDS011;46155;52.364;6.580;2023-07-13T14:29:37;11.80;;;10.53;;
60306;SDS011;46155;52.364;6.580;2023-07-13T14:32:03;10.70;;;9.57;;
60306;SDS011;46155;52.364;6.580;2023-07-13T14:34:30;11.00;;;9.00;;
60306;SDS011;46155;52.364;6.580;2023-07-13T14:36:55;12.27;;;8.50;;
60306;SDS011;46155;52.364;6.580;2023-07-13T14:39:22;15.27;;;8.47;;
60306;SDS011;46155;52.364;6.580;2023-07-13T14:41:50;9.13;;;8.33;;
60306;SDS011;46155;52.364;6.580;2023-07-13T14:44:17;11.57;;;9.43;;
60306;SDS011;46155;52.364;6.580;2023-07-13T14:46:45;8.90;;;8.00;;
60306;SDS011;46155;52.364;6.580;2023-07-13T14:49:15;10.23;;;9.23;;
60306;SDS011;46155;52.364;6.580;2023-07-13T14:51:48;9.17;;;8.30;;
60306;SDS011;46155;52.364;6.580;2023-07-13T14:54:14;11.20;;;10.10;;
60306;SDS011;46155;52.364;6.580;2023-07-13T14:56:39;8.93;;;7.27;;
60306;SDS011;46155;52.364;6.580;2023-07-13T14:59:05;8.30;;;7.67;;
60306;SDS011;46155;52.364;6.580;2023-07-13T15:01:32;10.47;;;7.67;;
60306;SDS011;46155;52.364;6.580;2023-07-13T15:03:59;7.53;;;6.83;;
60306;SDS011;46155;52.364;6.580;2023-07-13T15:06:24;8.33;;;7.53;;
60306;SDS011;46155;52.364;6.580;2023-07-13T15:08:50;10.17;;;9.20;;
60306;SDS011;46155;52.364;6.580;2023-07-13T15:11:16;9.17;;;7.23;;
60306;SDS011;46155;52.364;6.580;2023-07-13T15:13:41;7.60;;;6.87;;
60306;SDS011;46155;52.364;6.580;2023-07-13T15:16:16;9.20;;;6.90;;
60306;SDS011;46155;52.364;6.580;2023-07-13T15:18:46;7.90;;;6.83;;
60306;SDS011;46155;52.364;6.580;2023-07-13T15:21:13;8.87;;;7.57;;
60306;SDS011;46155;52.364;6.580;2023-07-13T15:23:44;10.23;;;7.60;;
60306;SDS011;46155;52.364;6.580;2023-07-13T15:26:13;8.00;;;7.50;;
60306;SDS011;46155;52.364;6.580;2023-07-13T15:28:40;9.43;;;8.67;;
60306;SDS011;46155;52.364;6.580;2023-07-13T15:33:50;9.90;;;9.10;;
60306;SDS011;46155;52.364;6.580;2023-07-13T15:36:17;10.97;;;9.63;;
60306;SDS011;46155;52.364;6.580;2023-07-13T15:38:44;8.63;;;8.03;;
60306;SDS011;46155;52.364;6.580;2023-07-13T15:41:19;17.50;;;7.07;;
60306;SDS011;46155;52.364;6.580;2023-07-13T15:43:50;13.27;;;7.70;;
60306;SDS011;46155;52.364;6.580;2023-07-13T15:46:22;8.17;;;7.50;;
60306;SDS011;46155;52.364;6.580;2023-07-13T15:48:48;8.40;;;7.20;;
60306;SDS011;46155;52.364;6.580;2023-07-13T15:51:23;7.73;;;6.73;;
60306;SDS011;46155;52.364;6.580;2023-07-13T15:53:52;7.67;;;6.77;;
60306;SDS011;46155;52.364;6.580;2023-07-13T15:56:21;10.87;;;7.20;;
60306;SDS011;46155;52.364;6.580;2023-07-13T15:58:49;8.67;;;7.10;;
60306;SDS011;46155;52.364;6.580;2023-07-13T16:01:16;7.40;;;6.47;;
60306;SDS011;46155;52.364;6.580;2023-07-13T16:03:41;8.63;;;6.80;;
60306;SDS011;46155;52.364;6.580;2023-07-13T16:06:29;7.43;;;6.93;;
60306;SDS011;46155;52.364;6.580;2023-07-13T16:09:00;7.73;;;7.13;;
60306;SDS011;46155;52.364;6.580;2023-07-13T16:11:29;8.60;;;7.70;;
60306;SDS011;46155;52.364;6.580;2023-07-13T16:13:58;12.17;;;8.33;;
60306;SDS011;46155;52.364;6.580;2023-07-13T16:16:31;10.07;;;9.20;;
60306;SDS011;46155;52.364;6.580;2023-07-13T16:18:59;7.93;;;7.13;;
60306;SDS011;46155;52.364;6.580;2023-07-13T16:21:26;9.93;;;7.40;;
60306;SDS011;46155;52.364;6.580;2023-07-13T16:23:55;8.80;;;6.90;;
60306;SDS011;46155;52.364;6.580;2023-07-13T16:26:23;7.70;;;7.00;;
60306;SDS011;46155;52.364;6.580;2023-07-13T16:28:49;8.57;;;6.87;;
60306;SDS011;46155;52.364;6.580;2023-07-13T16:31:14;8.33;;;7.53;;
60306;SDS011;46155;52.364;6.580;2023-07-13T16:33:39;7.77;;;7.07;;
60306;SDS011;46155;52.364;6.580;2023-07-13T16:36:09;8.67;;;7.27;;
60306;SDS011;46155;52.364;6.580;2023-07-13T16:38:36;7.67;;;6.80;;
60306;SDS011;46155;52.364;6.580;2023-07-13T16:41:02;7.73;;;6.43;;
60306;SDS011;46155;52.364;6.580;2023-07-13T16:43:30;7.10;;;6.43;;
60306;SDS011;46155;52.364;6.580;2023-07-13T16:45:55;8.27;;;7.37;;
60306;SDS011;46155;52.364;6.580;2023-07-13T16:48:28;7.77;;;7.07;;
60306;SDS011;46155;52.364;6.580;2023-07-13T16:50:55;7.87;;;7.13;;
60306;SDS011;46155;52.364;6.580;2023-07-13T16:53:23;7.67;;;6.97;;
60306;SDS011;46155;52.364;6.580;2023-07-13T16:55:51;8.40;;;7.70;;
60306;SDS011;46155;52.364;6.580;2023-07-13T16:58:20;7.33;;;6.80;;
60306;SDS011;46155;52.364;6.580;2023-07-13T17:00:49;7.77;;;6.97;;
60306;SDS011;46155;52.364;6.580;2023-07-13T17:03:17;6.97;;;6.37;;
60306;SDS011;46155;52.364;6.580;2023-07-13T17:05:44;10.97;;;7.67;;
60306;SDS011;46155;52.364;6.580;2023-07-13T17:08:14;8.33;;;7.50;;
60306;SDS011;46155;52.364;6.580;2023-07-13T17:10:40;11.87;;;7.60;;
60306;SDS011;46155;52.364;6.580;2023-07-13T17:13:09;7.87;;;7.20;;
60306;SDS011;46155;52.364;6.580;2023-07-13T17:15:36;7.50;;;6.87;;
60306;SDS011;46155;52.364;6.580;2023-07-13T17:18:03;9.37;;;7.10;;
60306;SDS011;46155;52.364;6.580;2023-07-13T17:20:33;9.67;;;7.60;;
60306;SDS011;46155;52.364;6.580;2023-07-13T17:23:08;8.50;;;7.37;;
60306;SDS011;46155;52.364;6.580;2023-07-13T17:25:37;8.40;;;7.60;;
60306;SDS011;46155;52.364;6.580;2023-07-13T17:28:04;8.13;;;7.53;;
60306;SDS011;46155;52.364;6.580;2023-07-13T17:30:30;11.00;;;9.33;;
60306;SDS011;46155;52.364;6.580;2023-07-13T17:32:55;7.43;;;6.63;;
60306;SDS011;46155;52.364;6.580;2023-07-13T17:35:25;8.87;;;7.87;;
60306;SDS011;46155;52.364;6.580;2023-07-13T17:37:58;8.80;;;7.90;;
60306;SDS011;46155;52.364;6.580;2023-07-13T17:40:25;7.47;;;6.97;;
60306;SDS011;46155;52.364;6.580;2023-07-13T17:42:51;8.50;;;7.00;;
60306;SDS011;46155;52.364;6.580;2023-07-13T17:45:20;8.23;;;7.40;;
60306;SDS011;46155;52.364;6.580;2023-07-13T17:47:46;10.73;;;7.53;;
60306;SDS011;46155;52.364;6.580;2023-07-13T17:50:15;10.43;;;7.50;;
60306;SDS011;46155;52.364;6.580;2023-07-13T17:52:47;9.47;;;7.20;;
60306;SDS011;46155;52.364;6.580;2023-07-13T17:55:17;7.43;;;6.83;;
60306;SDS011;46155;52.364;6.580;2023-07-13T17:57:45;9.00;;;7.03;;
60306;SDS011;46155;52.364;6.580;2023-07-13T18:00:17;14.73;;;7.50;;
60306;SDS011;46155;52.364;6.580;2023-07-13T18:02:58;8.00;;;7.20;;
60306;SDS011;46155;52.364;6.580;2023-07-13T18:05:28;9.37;;;7.37;;
60306;SDS011;46155;52.364;6.580;2023-07-13T18:07:54;8.07;;;7.37;;
60306;SDS011;46155;52.364;6.580;2023-07-13T18:10:20;11.90;;;6.90;;
60306;SDS011;46155;52.364;6.580;2023-07-13T18:12:48;7.47;;;6.77;;
60306;SDS011;46155;52.364;6.580;2023-07-13T18:15:16;9.40;;;7.27;;
60306;SDS011;46155;52.364;6.580;2023-07-13T18:17:47;8.20;;;7.50;;
60306;SDS011;46155;52.364;6.580;2023-07-13T18:20:15;8.93;;;6.67;;
60306;SDS011;46155;52.364;6.580;2023-07-13T18:22:43;9.17;;;7.17;;
60306;SDS011;46155;52.364;6.580;2023-07-13T18:25:16;12.73;;;7.93;;
60306;SDS011;46155;52.364;6.580;2023-07-13T18:27:43;7.90;;;7.13;;
60306;SDS011;46155;52.364;6.580;2023-07-13T18:30:09;8.10;;;7.50;;
60306;SDS011;46155;52.364;6.580;2023-07-13T18:32:38;8.47;;;7.70;;